sensor_id;sensor_type;location;lat;lon;timestamp;temperature;humidity
72128;DHT22;60000;51.030;7.024;2023-02-03T00:01:31;9.17;83.80
72128;DHT22;60000;51.030;7.024;2023-02-03T00:03:57;9.20;83.81
72128;DHT22;60000;51.030;7.024;2023-02-03T00:06:22;9.27;83.68
72128;DHT22;60000;51.030;7.024;2023-02-03T00:08:48;9.22;83.88
72128;DHT22;60000;51.030;7.024;2023-02-03T00:11:18;9.21;83.64
72128;DHT22;60000;51.030;7.024;2023-02-03T00:13:43;9.20;83.78
72128;DHT22;60000;51.030;7.024;2023-02-03T00:16:08;9.22;83.84
72128;DHT22;60000;51.030;7.024;2023-02-03T00:18:34;9.20;83.90
72128;DHT22;60000;51.030;7.024;2023-02-03T00:20:59;9.17;83.86
72128;DHT22;60000;51.030;7.024;2023-02-03T00:23:24;9.18;83.81
72128;DHT22;60000;51.030;7.024;2023-02-03T00:25:50;9.22;83.78
72128;DHT22;60000;51.030;7.024;2023-02-03T00:28:16;9.22;83.82
72128;DHT22;60000;51.030;7.024;2023-02-03T00:30:41;9.27;83.30
72128;DHT22;60000;51.030;7.024;2023-02-03T00:33:07;9.27;83.39
72128;DHT22;60000;51.030;7.024;2023-02-03T00:35:32;9.30;83.16
72128;DHT22;60000;51.030;7.024;2023-02-03T00:37:57;9.25;83.31
72128;DHT22;60000;51.030;7.024;2023-02-03T00:40:25;9.27;83.38
72128;DHT22;60000;51.030;7.024;2023-02-03T00:42:51;9.27;83.41
72128;DHT22;60000;51.030;7.024;2023-02-03T00:45:16;9.22;83.30
72128;DHT22;60000;51.030;7.024;2023-02-03T00:47:42;9.22;83.50
72128;DHT22;60000;51.030;7.024;2023-02-03T00:50:08;9.18;83.57
72128;DHT22;60000;51.030;7.024;2023-02-03T00:52:34;9.20;83.77
72128;DHT22;60000;51.030;7.024;2023-02-03T00:55:00;9.18;83.60
72128;DHT22;60000;51.030;7.024;2023-02-03T00:57:25;9.20;83.58
72128;DHT22;60000;51.030;7.024;2023-02-03T00:59:50;9.24;83.27
72128;DHT22;60000;51.030;7.024;2023-02-03T01:02:15;9.22;83.29
72128;DHT22;60000;51.030;7.024;2023-02-03T01:04:42;9.22;83.38
72128;DHT22;60000;51.030;7.024;2023-02-03T01:07:07;9.21;83.39
72128;DHT22;60000;51.030;7.024;2023-02-03T01:09:34;9.22;83.41
72128;DHT22;60000;51.030;7.024;2023-02-03T01:11:59;9.22;83.18
72128;DHT22;60000;51.030;7.024;2023-02-03T01:14:25;9.24;83.13
72128;DHT22;60000;51.030;7.024;2023-02-03T01:16:50;9.24;83.23
72128;DHT22;60000;51.030;7.024;2023-02-03T01:19:16;9.28;82.94
72128;DHT22;60000;51.030;7.024;2023-02-03T01:21:42;9.28;82.89
72128;DHT22;60000;51.030;7.024;2023-02-03T01:24:07;9.32;82.79
72128;DHT22;60000;51.030;7.024;2023-02-03T01:26:34;9.27;82.82
72128;DHT22;60000;51.030;7.024;2023-02-03T01:29:00;9.27;82.80
72128;DHT22;60000;51.030;7.024;2023-02-03T01:31:28;9.27;82.54
72128;DHT22;60000;51.030;7.024;2023-02-03T01:33:54;9.24;82.91
72128;DHT22;60000;51.030;7.024;2023-02-03T01:36:22;9.25;82.78
72128;DHT22;60000;51.030;7.024;2023-02-03T01:38:47;9.21;82.90
72128;DHT22;60000;51.030;7.024;2023-02-03T01:41:15;9.20;83.05
72128;DHT22;60000;51.030;7.024;2023-02-03T01:43:43;9.24;83.04
72128;DHT22;60000;51.030;7.024;2023-02-03T01:48:49;9.25;82.87
72128;DHT22;60000;51.030;7.024;2023-02-03T01:51:14;9.28;83.01
72128;DHT22;60000;51.030;7.024;2023-02-03T01:53:40;9.27;83.02
72128;DHT22;60000;51.030;7.024;2023-02-03T01:56:06;9.24;83.27
72128;DHT22;60000;51.030;7.024;2023-02-03T01:58:36;9.24;83.01
72128;DHT22;60000;51.030;7.024;2023-02-03T02:01:03;9.20;83.14
72128;DHT22;60000;51.030;7.024;2023-02-03T02:03:40;9.25;82.78
72128;DHT22;60000;51.030;7.024;2023-02-03T02:06:09;9.28;82.76
72128;DHT22;60000;51.030;7.024;2023-02-03T02:08:36;9.30;82.69
72128;DHT22;60000;51.030;7.024;2023-02-03T02:11:03;9.22;82.90
72128;DHT22;60000;51.030;7.024;2023-02-03T02:13:30;9.27;82.87
72128;DHT22;60000;51.030;7.024;2023-02-03T02:19:07;9.22;82.89
72128;DHT22;60000;51.030;7.024;2023-02-03T02:24:53;9.24;82.81
72128;DHT22;60000;51.030;7.024;2023-02-03T02:33:43;9.21;82.82
72128;DHT22;60000;51.030;7.024;2023-02-03T02:36:30;9.24;82.79
72128;DHT22;60000;51.030;7.024;2023-02-03T02:39:15;9.28;82.46
72128;DHT22;60000;51.030;7.024;2023-02-03T02:41:51;9.28;82.45
72128;DHT22;60000;51.030;7.024;2023-02-03T02:44:29;9.27;82.67
72128;DHT22;60000;51.030;7.024;2023-02-03T02:47:00;9.25;82.69
72128;DHT22;60000;51.030;7.024;2023-02-03T02:49:41;9.24;82.94
72128;DHT22;60000;51.030;7.024;2023-02-03T02:52:09;9.24;82.79
72128;DHT22;60000;51.030;7.024;2023-02-03T02:54:39;9.25;82.62
72128;DHT22;60000;51.030;7.024;2023-02-03T02:57:09;9.24;82.57
72128;DHT22;60000;51.030;7.024;2023-02-03T02:59:35;9.27;82.66
72128;DHT22;60000;51.030;7.024;2023-02-03T03:02:00;9.32;82.26
72128;DHT22;60000;51.030;7.024;2023-02-03T03:04:27;9.31;82.16
72128;DHT22;60000;51.030;7.024;2023-02-03T03:07:11;9.32;82.38
72128;DHT22;60000;51.030;7.024;2023-02-03T03:09:42;9.30;82.65
72128;DHT22;60000;51.030;7.024;2023-02-03T03:14:42;9.28;83.03
72128;DHT22;60000;51.030;7.024;2023-02-03T03:17:10;9.22;83.31
72128;DHT22;60000;51.030;7.024;2023-02-03T03:19:41;9.25;83.09
72128;DHT22;60000;51.030;7.024;2023-02-03T03:22:10;9.22;82.97
72128;DHT22;60000;51.030;7.024;2023-02-03T03:24:46;9.18;83.12
72128;DHT22;60000;51.030;7.024;2023-02-03T03:27:21;9.25;82.91
72128;DHT22;60000;51.030;7.024;2023-02-03T03:29:59;9.21;82.85
72128;DHT22;60000;51.030;7.024;2023-02-03T03:32:26;9.22;82.92
72128;DHT22;60000;51.030;7.024;2023-02-03T03:34:52;9.24;82.82
72128;DHT22;60000;51.030;7.024;2023-02-03T03:37:37;9.20;82.96
72128;DHT22;60000;51.030;7.024;2023-02-03T03:40:09;9.25;82.77
72128;DHT22;60000;51.030;7.024;2023-02-03T03:45:46;9.28;82.39
72128;DHT22;60000;51.030;7.024;2023-02-03T03:48:27;9.24;82.60
72128;DHT22;60000;51.030;7.024;2023-02-03T03:51:11;9.27;82.22
72128;DHT22;60000;51.030;7.024;2023-02-03T03:53:39;9.31;82.17
72128;DHT22;60000;51.030;7.024;2023-02-03T03:56:11;9.30;82.30
72128;DHT22;60000;51.030;7.024;2023-02-03T03:58:41;9.34;81.97
72128;DHT22;60000;51.030;7.024;2023-02-03T04:01:10;9.31;82.07
72128;DHT22;60000;51.030;7.024;2023-02-03T04:03:46;9.28;82.12
72128;DHT22;60000;51.030;7.024;2023-02-03T04:06:12;9.35;81.93
72128;DHT22;60000;51.030;7.024;2023-02-03T04:08:38;9.34;81.96
72128;DHT22;60000;51.030;7.024;2023-02-03T04:11:04;9.34;81.81
72128;DHT22;60000;51.030;7.024;2023-02-03T04:13:29;9.30;82.04
72128;DHT22;60000;51.030;7.024;2023-02-03T04:15:55;9.30;81.99
72128;DHT22;60000;51.030;7.024;2023-02-03T04:18:20;9.32;81.87
72128;DHT22;60000;51.030;7.024;2023-02-03T04:20:45;9.30;81.91
72128;DHT22;60000;51.030;7.024;2023-02-03T04:23:10;9.25;81.99
72128;DHT22;60000;51.030;7.024;2023-02-03T04:25:36;9.28;82.05
72128;DHT22;60000;51.030;7.024;2023-02-03T04:28:01;9.25;82.13
72128;DHT22;60000;51.030;7.024;2023-02-03T04:30:27;9.25;81.91
72128;DHT22;60000;51.030;7.024;2023-02-03T04:32:52;9.24;81.88
72128;DHT22;60000;51.030;7.024;2023-02-03T04:35:18;9.22;81.94
72128;DHT22;60000;51.030;7.024;2023-02-03T04:37:44;9.22;81.93
72128;DHT22;60000;51.030;7.024;2023-02-03T04:40:10;9.20;82.02
72128;DHT22;60000;51.030;7.024;2023-02-03T04:42:36;9.20;81.99
72128;DHT22;60000;51.030;7.024;2023-02-03T04:45:03;9.30;81.55
72128;DHT22;60000;51.030;7.024;2023-02-03T04:47:29;9.24;81.61
72128;DHT22;60000;51.030;7.024;2023-02-03T04:49:54;9.24;81.81
72128;DHT22;60000;51.030;7.024;2023-02-03T04:52:19;9.30;81.65
72128;DHT22;60000;51.030;7.024;2023-02-03T04:54:45;9.31;81.53
72128;DHT22;60000;51.030;7.024;2023-02-03T04:57:10;9.30;81.59
72128;DHT22;60000;51.030;7.024;2023-02-03T04:59:35;9.35;81.36
72128;DHT22;60000;51.030;7.024;2023-02-03T05:02:02;9.32;81.57
72128;DHT22;60000;51.030;7.024;2023-02-03T05:04:31;9.30;81.50
72128;DHT22;60000;51.030;7.024;2023-02-03T05:06:56;9.31;81.69
72128;DHT22;60000;51.030;7.024;2023-02-03T05:09:25;9.30;81.56
72128;DHT22;60000;51.030;7.024;2023-02-03T05:11:50;9.34;81.56
72128;DHT22;60000;51.030;7.024;2023-02-03T05:14:16;9.35;81.35
72128;DHT22;60000;51.030;7.024;2023-02-03T05:16:41;9.35;81.28
72128;DHT22;60000;51.030;7.024;2023-02-03T05:19:06;9.35;81.28
72128;DHT22;60000;51.030;7.024;2023-02-03T05:21:32;9.42;81.40
72128;DHT22;60000;51.030;7.024;2023-02-03T05:23:58;9.39;81.53
72128;DHT22;60000;51.030;7.024;2023-02-03T05:26:24;9.42;81.31
72128;DHT22;60000;51.030;7.024;2023-02-03T05:28:49;9.38;81.64
72128;DHT22;60000;51.030;7.024;2023-02-03T05:31:14;9.39;81.51
72128;DHT22;60000;51.030;7.024;2023-02-03T05:33:40;9.38;81.64
72128;DHT22;60000;51.030;7.024;2023-02-03T05:36:05;9.39;81.59
72128;DHT22;60000;51.030;7.024;2023-02-03T05:38:31;9.38;81.34
72128;DHT22;60000;51.030;7.024;2023-02-03T05:40:56;9.36;81.48
72128;DHT22;60000;51.030;7.024;2023-02-03T05:43:40;9.42;81.39
72128;DHT22;60000;51.030;7.024;2023-02-03T05:46:06;9.38;81.55
72128;DHT22;60000;51.030;7.024;2023-02-03T05:48:32;9.35;81.60
72128;DHT22;60000;51.030;7.024;2023-02-03T05:50:58;9.35;81.70
72128;DHT22;60000;51.030;7.024;2023-02-03T05:53:24;9.32;81.88
72128;DHT22;60000;51.030;7.024;2023-02-03T05:55:50;9.34;81.63
72128;DHT22;60000;51.030;7.024;2023-02-03T05:58:16;9.38;81.39
72128;DHT22;60000;51.030;7.024;2023-02-03T06:00:41;9.36;81.50
72128;DHT22;60000;51.030;7.024;2023-02-03T06:03:06;9.30;81.70
72128;DHT22;60000;51.030;7.024;2023-02-03T06:05:33;9.38;81.12
72128;DHT22;60000;51.030;7.024;2023-02-03T06:07:59;9.35;81.05
72128;DHT22;60000;51.030;7.024;2023-02-03T06:10:25;9.34;81.29
72128;DHT22;60000;51.030;7.024;2023-02-03T06:12:50;9.35;81.00
72128;DHT22;60000;51.030;7.024;2023-02-03T06:15:16;9.30;81.08
72128;DHT22;60000;51.030;7.024;2023-02-03T06:17:46;9.31;81.09
72128;DHT22;60000;51.030;7.024;2023-02-03T06:20:15;9.39;80.63
72128;DHT22;60000;51.030;7.024;2023-02-03T06:22:41;9.36;80.86
72128;DHT22;60000;51.030;7.024;2023-02-03T06:25:07;9.31;80.90
72128;DHT22;60000;51.030;7.024;2023-02-03T06:27:32;9.34;80.58
72128;DHT22;60000;51.030;7.024;2023-02-03T06:29:58;9.34;80.74
72128;DHT22;60000;51.030;7.024;2023-02-03T06:32:24;9.38;80.47
72128;DHT22;60000;51.030;7.024;2023-02-03T06:34:49;9.36;80.57
72128;DHT22;60000;51.030;7.024;2023-02-03T06:37:15;9.41;80.21
72128;DHT22;60000;51.030;7.024;2023-02-03T06:39:40;9.36;80.40
72128;DHT22;60000;51.030;7.024;2023-02-03T06:42:06;9.41;80.22
72128;DHT22;60000;51.030;7.024;2023-02-03T06:44:31;9.35;80.43
72128;DHT22;60000;51.030;7.024;2023-02-03T06:46:56;9.42;80.01
72128;DHT22;60000;51.030;7.024;2023-02-03T06:49:22;9.39;80.16
72128;DHT22;60000;51.030;7.024;2023-02-03T06:51:48;9.39;80.02
72128;DHT22;60000;51.030;7.024;2023-02-03T06:54:13;9.42;80.06
72128;DHT22;60000;51.030;7.024;2023-02-03T06:56:39;9.41;80.21
72128;DHT22;60000;51.030;7.024;2023-02-03T06:59:04;9.43;80.34
72128;DHT22;60000;51.030;7.024;2023-02-03T07:01:30;9.43;80.32
72128;DHT22;60000;51.030;7.024;2023-02-03T07:03:56;9.46;80.01
72128;DHT22;60000;51.030;7.024;2023-02-03T07:06:26;9.52;79.97
72128;DHT22;60000;51.030;7.024;2023-02-03T07:08:54;9.48;80.04
72128;DHT22;60000;51.030;7.024;2023-02-03T07:11:20;9.48;79.95
72128;DHT22;60000;51.030;7.024;2023-02-03T07:13:45;9.48;80.12
72128;DHT22;60000;51.030;7.024;2023-02-03T07:16:11;9.48;80.29
72128;DHT22;60000;51.030;7.024;2023-02-03T07:18:36;9.52;79.89
72128;DHT22;60000;51.030;7.024;2023-02-03T07:21:04;9.49;80.03
72128;DHT22;60000;51.030;7.024;2023-02-03T07:23:29;9.49;80.00
72128;DHT22;60000;51.030;7.024;2023-02-03T07:25:58;9.45;80.26
72128;DHT22;60000;51.030;7.024;2023-02-03T07:28:23;9.48;80.02
72128;DHT22;60000;51.030;7.024;2023-02-03T07:30:49;9.42;80.07
72128;DHT22;60000;51.030;7.024;2023-02-03T07:33:14;9.42;80.09
72128;DHT22;60000;51.030;7.024;2023-02-03T07:35:39;9.49;79.74
72128;DHT22;60000;51.030;7.024;2023-02-03T07:38:05;9.55;79.67
72128;DHT22;60000;51.030;7.024;2023-02-03T07:40:30;9.49;79.86
72128;DHT22;60000;51.030;7.024;2023-02-03T07:42:55;9.52;79.79
72128;DHT22;60000;51.030;7.024;2023-02-03T07:45:21;9.55;79.62
72128;DHT22;60000;51.030;7.024;2023-02-03T07:47:48;9.52;79.88
72128;DHT22;60000;51.030;7.024;2023-02-03T07:50:14;9.49;79.97
72128;DHT22;60000;51.030;7.024;2023-02-03T07:52:39;9.46;79.96
72128;DHT22;60000;51.030;7.024;2023-02-03T07:55:05;9.38;80.19
72128;DHT22;60000;51.030;7.024;2023-02-03T07:57:30;9.35;80.19
72128;DHT22;60000;51.030;7.024;2023-02-03T07:59:55;9.45;80.03
72128;DHT22;60000;51.030;7.024;2023-02-03T08:02:21;9.48;79.69
72128;DHT22;60000;51.030;7.024;2023-02-03T08:04:46;9.46;79.85
72128;DHT22;60000;51.030;7.024;2023-02-03T08:07:11;9.46;79.84
72128;DHT22;60000;51.030;7.024;2023-02-03T08:09:37;9.45;79.82
72128;DHT22;60000;51.030;7.024;2023-02-03T08:12:02;9.49;79.60
72128;DHT22;60000;51.030;7.024;2023-02-03T08:14:28;9.42;79.68
72128;DHT22;60000;51.030;7.024;2023-02-03T08:16:53;9.53;79.38
72128;DHT22;60000;51.030;7.024;2023-02-03T08:19:19;9.51;79.40
72128;DHT22;60000;51.030;7.024;2023-02-03T08:21:44;9.43;79.84
72128;DHT22;60000;51.030;7.024;2023-02-03T08:24:09;9.46;79.83
72128;DHT22;60000;51.030;7.024;2023-02-03T08:26:35;9.49;79.58
72128;DHT22;60000;51.030;7.024;2023-02-03T08:29:01;9.48;79.64
72128;DHT22;60000;51.030;7.024;2023-02-03T08:31:26;9.42;79.96
72128;DHT22;60000;51.030;7.024;2023-02-03T08:33:51;9.41;80.07
72128;DHT22;60000;51.030;7.024;2023-02-03T08:36:16;9.45;80.01
72128;DHT22;60000;51.030;7.024;2023-02-03T08:38:42;9.52;79.97
72128;DHT22;60000;51.030;7.024;2023-02-03T08:41:12;9.46;80.13
72128;DHT22;60000;51.030;7.024;2023-02-03T08:43:39;9.39;80.61
72128;DHT22;60000;51.030;7.024;2023-02-03T08:46:06;9.46;80.53
72128;DHT22;60000;51.030;7.024;2023-02-03T08:48:32;9.45;80.59
72128;DHT22;60000;51.030;7.024;2023-02-03T08:50:57;9.43;80.85
72128;DHT22;60000;51.030;7.024;2023-02-03T08:53:23;9.38;81.00
72128;DHT22;60000;51.030;7.024;2023-02-03T08:55:48;9.35;81.26
72128;DHT22;60000;51.030;7.024;2023-02-03T08:58:13;9.35;81.44
72128;DHT22;60000;51.030;7.024;2023-02-03T09:00:39;9.35;81.36
72128;DHT22;60000;51.030;7.024;2023-02-03T09:03:04;9.35;81.41
72128;DHT22;60000;51.030;7.024;2023-02-03T09:05:30;9.32;81.47
72128;DHT22;60000;51.030;7.024;2023-02-03T09:07:56;9.27;81.69
72128;DHT22;60000;51.030;7.024;2023-02-03T09:10:21;9.30;81.52
72128;DHT22;60000;51.030;7.024;2023-02-03T09:12:47;9.31;81.62
72128;DHT22;60000;51.030;7.024;2023-02-03T09:15:12;9.31;81.39
72128;DHT22;60000;51.030;7.024;2023-02-03T09:17:38;9.32;81.39
72128;DHT22;60000;51.030;7.024;2023-02-03T09:20:04;9.34;81.34
72128;DHT22;60000;51.030;7.024;2023-02-03T09:22:29;9.39;81.03
72128;DHT22;60000;51.030;7.024;2023-02-03T09:24:54;9.41;81.08
72128;DHT22;60000;51.030;7.024;2023-02-03T09:27:20;9.38;81.12
72128;DHT22;60000;51.030;7.024;2023-02-03T09:29:45;9.36;81.31
72128;DHT22;60000;51.030;7.024;2023-02-03T09:32:11;9.36;81.52
72128;DHT22;60000;51.030;7.024;2023-02-03T09:34:36;9.30;81.72
72128;DHT22;60000;51.030;7.024;2023-02-03T09:37:03;9.31;81.88
72128;DHT22;60000;51.030;7.024;2023-02-03T09:39:29;9.32;82.19
72128;DHT22;60000;51.030;7.024;2023-02-03T09:42:44;9.36;81.97
72128;DHT22;60000;51.030;7.024;2023-02-03T09:45:13;9.28;82.34
72128;DHT22;60000;51.030;7.024;2023-02-03T09:47:42;9.24;82.68
72128;DHT22;60000;51.030;7.024;2023-02-03T09:50:19;9.25;83.00
72128;DHT22;60000;51.030;7.024;2023-02-03T09:52:45;9.21;83.19
72128;DHT22;60000;51.030;7.024;2023-02-03T09:58:15;9.21;83.66
72128;DHT22;60000;51.030;7.024;2023-02-03T10:05:56;9.11;84.46
72128;DHT22;60000;51.030;7.024;2023-02-03T10:18:56;9.03;85.85
72128;DHT22;60000;51.030;7.024;2023-02-03T10:21:34;9.00;86.08
72128;DHT22;60000;51.030;7.024;2023-02-03T10:24:01;9.03;86.19
72128;DHT22;60000;51.030;7.024;2023-02-03T10:26:28;9.03;86.39
72128;DHT22;60000;51.030;7.024;2023-02-03T10:28:56;9.00;86.63
72128;DHT22;60000;51.030;7.024;2023-02-03T10:31:25;9.00;86.68
72128;DHT22;60000;51.030;7.024;2023-02-03T10:34:08;8.94;87.13
72128;DHT22;60000;51.030;7.024;2023-02-03T10:39:32;8.91;87.62
72128;DHT22;60000;51.030;7.024;2023-02-03T10:42:02;8.88;87.82
72128;DHT22;60000;51.030;7.024;2023-02-03T10:47:19;8.91;88.06
72128;DHT22;60000;51.030;7.024;2023-02-03T10:49:48;8.87;88.33
72128;DHT22;60000;51.030;7.024;2023-02-03T10:52:31;8.97;88.37
72128;DHT22;60000;51.030;7.024;2023-02-03T10:54:58;8.91;88.42
72128;DHT22;60000;51.030;7.024;2023-02-03T10:57:24;8.90;88.49
72128;DHT22;60000;51.030;7.024;2023-02-03T10:59:50;8.87;88.71
72128;DHT22;60000;51.030;7.024;2023-02-03T11:02:22;8.88;88.50
72128;DHT22;60000;51.030;7.024;2023-02-03T11:05:07;8.88;88.49
72128;DHT22;60000;51.030;7.024;2023-02-03T11:07:33;8.85;88.77
72128;DHT22;60000;51.030;7.024;2023-02-03T11:09:58;8.90;88.55
72128;DHT22;60000;51.030;7.024;2023-02-03T11:12:24;8.88;88.69
72128;DHT22;60000;51.030;7.024;2023-02-03T11:14:51;8.92;88.43
72128;DHT22;60000;51.030;7.024;2023-02-03T11:17:22;8.96;88.51
72128;DHT22;60000;51.030;7.024;2023-02-03T11:19:50;8.97;88.26
72128;DHT22;60000;51.030;7.024;2023-02-03T11:22:27;9.00;88.24
72128;DHT22;60000;51.030;7.024;2023-02-03T11:24:53;9.01;88.15
72128;DHT22;60000;51.030;7.024;2023-02-03T11:27:20;9.07;87.95
72128;DHT22;60000;51.030;7.024;2023-02-03T11:29:49;9.08;87.73
72128;DHT22;60000;51.030;7.024;2023-02-03T11:32:18;9.15;87.62
72128;DHT22;60000;51.030;7.024;2023-02-03T11:37:32;9.21;87.31
72128;DHT22;60000;51.030;7.024;2023-02-03T11:48:05;9.24;87.10
72128;DHT22;60000;51.030;7.024;2023-02-03T11:50:59;9.22;87.28
72128;DHT22;60000;51.030;7.024;2023-02-03T12:02:18;9.28;86.82
72128;DHT22;60000;51.030;7.024;2023-02-03T12:08:12;9.41;86.36
72128;DHT22;60000;51.030;7.024;2023-02-03T12:19:15;9.46;85.85
72128;DHT22;60000;51.030;7.024;2023-02-03T12:21:45;9.51;85.65
72128;DHT22;60000;51.030;7.024;2023-02-03T12:29:50;9.59;85.22
72128;DHT22;60000;51.030;7.024;2023-02-03T12:32:41;9.60;85.20
72128;DHT22;60000;51.030;7.024;2023-02-03T12:35:19;9.60;85.18
72128;DHT22;60000;51.030;7.024;2023-02-03T12:37:55;9.62;85.16
72128;DHT22;60000;51.030;7.024;2023-02-03T12:40:43;9.63;85.07
72128;DHT22;60000;51.030;7.024;2023-02-03T12:45:53;9.69;84.70
72128;DHT22;60000;51.030;7.024;2023-02-03T12:48:24;9.68;84.95
72128;DHT22;60000;51.030;7.024;2023-02-03T12:50:55;9.69;84.83
72128;DHT22;60000;51.030;7.024;2023-02-03T12:53:32;9.69;84.87
72128;DHT22;60000;51.030;7.024;2023-02-03T12:56:03;9.69;84.92
72128;DHT22;60000;51.030;7.024;2023-02-03T12:58:51;9.70;84.92
72128;DHT22;60000;51.030;7.024;2023-02-03T13:01:25;9.69;85.16
72128;DHT22;60000;51.030;7.024;2023-02-03T13:06:50;9.68;85.31
72128;DHT22;60000;51.030;7.024;2023-02-03T13:14:47;9.63;85.30
72128;DHT22;60000;51.030;7.024;2023-02-03T13:19:52;9.68;85.28
72128;DHT22;60000;51.030;7.024;2023-02-03T13:22:21;9.65;85.39
72128;DHT22;60000;51.030;7.024;2023-02-03T13:25:01;9.63;85.42
72128;DHT22;60000;51.030;7.024;2023-02-03T13:44:11;9.66;85.46
72128;DHT22;60000;51.030;7.024;2023-02-03T13:46:38;9.68;85.38
72128;DHT22;60000;51.030;7.024;2023-02-03T13:49:05;9.70;85.19
72128;DHT22;60000;51.030;7.024;2023-02-03T13:51:36;9.72;85.11
72128;DHT22;60000;51.030;7.024;2023-02-03T13:54:16;9.75;84.97
72128;DHT22;60000;51.030;7.024;2023-02-03T13:56:53;9.76;85.01
72128;DHT22;60000;51.030;7.024;2023-02-03T13:59:29;9.87;84.47
72128;DHT22;60000;51.030;7.024;2023-02-03T14:07:39;10.00;83.72
72128;DHT22;60000;51.030;7.024;2023-02-03T14:25:32;10.09;84.40
72128;DHT22;60000;51.030;7.024;2023-02-03T14:28:04;10.09;84.70
72128;DHT22;60000;51.030;7.024;2023-02-03T14:30:31;10.07;84.67
72128;DHT22;60000;51.030;7.024;2023-02-03T14:32:57;10.06;84.68
72128;DHT22;60000;51.030;7.024;2023-02-03T14:35:35;10.06;84.86
72128;DHT22;60000;51.030;7.024;2023-02-03T14:38:03;10.06;84.78
72128;DHT22;60000;51.030;7.024;2023-02-03T14:43:13;10.17;83.76
72128;DHT22;60000;51.030;7.024;2023-02-03T14:46:03;10.20;83.96
72128;DHT22;60000;51.030;7.024;2023-02-03T14:57:47;10.17;83.73
72128;DHT22;60000;51.030;7.024;2023-02-03T15:05:42;10.16;83.83
72128;DHT22;60000;51.030;7.024;2023-02-03T15:08:43;10.16;83.63
72128;DHT22;60000;51.030;7.024;2023-02-03T15:11:31;10.18;83.67
72128;DHT22;60000;51.030;7.024;2023-02-03T15:14:17;10.14;83.71
72128;DHT22;60000;51.030;7.024;2023-02-03T15:16:43;10.14;83.63
72128;DHT22;60000;51.030;7.024;2023-02-03T15:19:21;10.16;83.51
72128;DHT22;60000;51.030;7.024;2023-02-03T15:21:47;10.20;83.26
72128;DHT22;60000;51.030;7.024;2023-02-03T15:24:17;10.18;83.12
72128;DHT22;60000;51.030;7.024;2023-02-03T15:26:46;10.20;83.26
72128;DHT22;60000;51.030;7.024;2023-02-03T15:29:30;10.22;83.32
72128;DHT22;60000;51.030;7.024;2023-02-03T15:32:09;10.18;83.35
72128;DHT22;60000;51.030;7.024;2023-02-03T15:34:40;10.20;83.36
72128;DHT22;60000;51.030;7.024;2023-02-03T15:37:14;10.18;84.09
72128;DHT22;60000;51.030;7.024;2023-02-03T15:42:40;10.07;85.49
72128;DHT22;60000;51.030;7.024;2023-02-03T15:45:32;10.00;86.27
72128;DHT22;60000;51.030;7.024;2023-02-03T15:50:36;9.76;86.44
72128;DHT22;60000;51.030;7.024;2023-02-03T15:53:07;9.59;87.06
72128;DHT22;60000;51.030;7.024;2023-02-03T15:55:44;9.49;87.16
72128;DHT22;60000;51.030;7.024;2023-02-03T15:58:22;9.39;87.14
72128;DHT22;60000;51.030;7.024;2023-02-03T16:00:51;9.34;86.73
72128;DHT22;60000;51.030;7.024;2023-02-03T16:03:21;9.25;86.53
72128;DHT22;60000;51.030;7.024;2023-02-03T16:05:48;9.17;86.71
72128;DHT22;60000;51.030;7.024;2023-02-03T16:08:33;9.14;87.04
72128;DHT22;60000;51.030;7.024;2023-02-03T16:11:00;9.10;87.35
72128;DHT22;60000;51.030;7.024;2023-02-03T16:13:27;9.07;87.62
72128;DHT22;60000;51.030;7.024;2023-02-03T16:16:31;9.07;87.68
72128;DHT22;60000;51.030;7.024;2023-02-03T16:19:04;9.04;87.96
72128;DHT22;60000;51.030;7.024;2023-02-03T16:27:20;8.96;88.34
72128;DHT22;60000;51.030;7.024;2023-02-03T16:29:46;8.96;88.19
72128;DHT22;60000;51.030;7.024;2023-02-03T16:32:30;8.92;88.11
72128;DHT22;60000;51.030;7.024;2023-02-03T16:35:14;8.94;87.67
72128;DHT22;60000;51.030;7.024;2023-02-03T16:38:27;8.91;87.52
72128;DHT22;60000;51.030;7.024;2023-02-03T16:41:15;8.92;86.98
72128;DHT22;60000;51.030;7.024;2023-02-03T16:43:59;8.91;87.06
72128;DHT22;60000;51.030;7.024;2023-02-03T16:46:44;8.87;87.21
72128;DHT22;60000;51.030;7.024;2023-02-03T16:49:29;8.85;87.30
72128;DHT22;60000;51.030;7.024;2023-02-03T16:52:13;8.87;87.27
72128;DHT22;60000;51.030;7.024;2023-02-03T16:54:38;8.85;87.34
72128;DHT22;60000;51.030;7.024;2023-02-03T16:57:04;8.83;87.53
72128;DHT22;60000;51.030;7.024;2023-02-03T16:59:29;8.83;87.60
72128;DHT22;60000;51.030;7.024;2023-02-03T17:01:54;8.87;87.73
72128;DHT22;60000;51.030;7.024;2023-02-03T17:04:20;8.83;87.87
72128;DHT22;60000;51.030;7.024;2023-02-03T17:06:45;8.81;87.99
72128;DHT22;60000;51.030;7.024;2023-02-03T17:09:15;8.83;88.09
72128;DHT22;60000;51.030;7.024;2023-02-03T17:11:40;8.80;88.05
72128;DHT22;60000;51.030;7.024;2023-02-03T17:14:05;8.81;88.22
72128;DHT22;60000;51.030;7.024;2023-02-03T17:16:31;8.80;88.33
72128;DHT22;60000;51.030;7.024;2023-02-03T17:18:57;8.80;88.41
72128;DHT22;60000;51.030;7.024;2023-02-03T17:21:24;8.80;88.50
72128;DHT22;60000;51.030;7.024;2023-02-03T17:23:50;8.79;88.60
72128;DHT22;60000;51.030;7.024;2023-02-03T17:26:16;8.76;88.82
72128;DHT22;60000;51.030;7.024;2023-02-03T17:28:41;8.79;88.81
72128;DHT22;60000;51.030;7.024;2023-02-03T17:31:09;8.80;88.85
72128;DHT22;60000;51.030;7.024;2023-02-03T17:33:36;8.77;88.86
72128;DHT22;60000;51.030;7.024;2023-02-03T17:36:06;8.79;88.89
72128;DHT22;60000;51.030;7.024;2023-02-03T17:38:45;8.77;88.98
72128;DHT22;60000;51.030;7.024;2023-02-03T17:41:15;8.79;88.90
72128;DHT22;60000;51.030;7.024;2023-02-03T17:43:41;8.73;88.85
72128;DHT22;60000;51.030;7.024;2023-02-03T17:46:09;8.73;88.92
72128;DHT22;60000;51.030;7.024;2023-02-03T17:48:35;8.71;88.76
72128;DHT22;60000;51.030;7.024;2023-02-03T17:51:18;8.71;88.73
72128;DHT22;60000;51.030;7.024;2023-02-03T17:53:44;8.71;88.73
72128;DHT22;60000;51.030;7.024;2023-02-03T17:56:13;8.69;88.73
72128;DHT22;60000;51.030;7.024;2023-02-03T17:58:39;8.66;88.75
72128;DHT22;60000;51.030;7.024;2023-02-03T18:03:33;8.64;88.75
72128;DHT22;60000;51.030;7.024;2023-02-03T18:05:58;8.66;88.84
72128;DHT22;60000;51.030;7.024;2023-02-03T18:08:27;8.63;88.79
72128;DHT22;60000;51.030;7.024;2023-02-03T18:10:52;8.62;88.72
72128;DHT22;60000;51.030;7.024;2023-02-03T18:13:18;8.62;88.71
72128;DHT22;60000;51.030;7.024;2023-02-03T18:15:47;8.63;88.52
72128;DHT22;60000;51.030;7.024;2023-02-03T18:18:12;8.60;88.38
72128;DHT22;60000;51.030;7.024;2023-02-03T18:20:37;8.56;88.36
72128;DHT22;60000;51.030;7.024;2023-02-03T18:23:03;8.59;88.11
72128;DHT22;60000;51.030;7.024;2023-02-03T18:25:28;8.57;87.99
72128;DHT22;60000;51.030;7.024;2023-02-03T18:27:54;8.57;87.69
72128;DHT22;60000;51.030;7.024;2023-02-03T18:30:19;8.63;87.18
72128;DHT22;60000;51.030;7.024;2023-02-03T18:32:49;8.63;86.85
72128;DHT22;60000;51.030;7.024;2023-02-03T18:35:15;8.60;86.55
72128;DHT22;60000;51.030;7.024;2023-02-03T18:37:41;8.57;86.33
72128;DHT22;60000;51.030;7.024;2023-02-03T18:40:06;8.53;86.30
72128;DHT22;60000;51.030;7.024;2023-02-03T18:42:33;8.50;86.06